sensor_id;sensor_type;location;lat;lon;timestamp;P1;durP1;ratioP1;P2;durP2;ratioP2
2386;SDS011;49473;50.772;8.768;2023-08-12T00:00:01;4.60;;;4.13;;
2386;SDS011;49473;50.772;8.768;2023-08-12T00:02:34;7.80;;;5.07;;
2386;SDS011;49473;50.772;8.768;2023-08-12T00:05:01;5.07;;;3.97;;
2386;SDS011;49473;50.772;8.768;2023-08-12T00:07:28;6.00;;;3.70;;
2386;SDS011;49473;50.772;8.768;2023-08-12T00:09:55;6.53;;;4.10;;
2386;SDS011;49473;50.772;8.768;2023-08-12T00:12:22;6.33;;;4.60;;
2386;SDS011;49473;50.772;8.768;2023-08-12T00:14:50;4.27;;;3.87;;
2386;SDS011;49473;50.772;8.768;2023-08-12T00:17:17;6.23;;;4.20;;
2386;SDS011;49473;50.772;8.768;2023-08-12T00:19:44;5.30;;;4.33;;
2386;SDS011;49473;50.772;8.768;2023-08-12T00:22:10;4.17;;;3.87;;
2386;SDS011;49473;50.772;8.768;2023-08-12T00:24:38;4.60;;;4.10;;
2386;SDS011;49473;50.772;8.768;2023-08-12T00:27:05;4.63;;;4.23;;
2386;SDS011;49473;50.772;8.768;2023-08-12T00:29:33;5.10;;;4.67;;
2386;SDS011;49473;50.772;8.768;2023-08-12T00:32:02;4.63;;;4.23;;
2386;SDS011;49473;50.772;8.768;2023-08-12T00:34:29;5.40;;;4.93;;
2386;SDS011;49473;50.772;8.768;2023-08-12T00:36:56;4.93;;;4.53;;
2386;SDS011;49473;50.772;8.768;2023-08-12T00:39:22;4.63;;;4.10;;
2386;SDS011;49473;50.772;8.768;2023-08-12T00:41:50;7.13;;;4.80;;
2386;SDS011;49473;50.772;8.768;2023-08-12T00:44:16;6.40;;;4.67;;
2386;SDS011;49473;50.772;8.768;2023-08-12T00:46:43;6.27;;;4.27;;
2386;SDS011;49473;50.772;8.768;2023-08-12T00:49:12;5.83;;;4.40;;
2386;SDS011;49473;50.772;8.768;2023-08-12T00:51:39;5.23;;;4.03;;
2386;SDS011;49473;50.772;8.768;2023-08-12T00:54:08;4.83;;;4.30;;
2386;SDS011;49473;50.772;8.768;2023-08-12T00:56:39;4.70;;;4.27;;
2386;SDS011;49473;50.772;8.768;2023-08-12T00:59:06;4.93;;;4.53;;
2386;SDS011;49473;50.772;8.768;2023-08-12T01:01:35;4.90;;;4.50;;
2386;SDS011;49473;50.772;8.768;2023-08-12T01:04:04;5.90;;;4.83;;
2386;SDS011;49473;50.772;8.768;2023-08-12T01:06:32;5.83;;;5.00;;
2386;SDS011;49473;50.772;8.768;2023-08-12T01:08:59;4.40;;;4.10;;
2386;SDS011;49473;50.772;8.768;2023-08-12T01:11:32;4.97;;;4.47;;
2386;SDS011;49473;50.772;8.768;2023-08-12T01:14:04;5.20;;;4.70;;
2386;SDS011;49473;50.772;8.768;2023-08-12T01:16:44;5.87;;;5.07;;
2386;SDS011;49473;50.772;8.768;2023-08-12T01:19:17;4.77;;;4.40;;
2386;SDS011;49473;50.772;8.768;2023-08-12T01:21:54;5.30;;;4.87;;
2386;SDS011;49473;50.772;8.768;2023-08-12T01:24:26;6.37;;;4.57;;
2386;SDS011;49473;50.772;8.768;2023-08-12T01:26:53;5.47;;;4.93;;
2386;SDS011;49473;50.772;8.768;2023-08-12T01:29:20;5.80;;;5.30;;
2386;SDS011;49473;50.772;8.768;2023-08-12T01:31:48;5.37;;;4.97;;
2386;SDS011;49473;50.772;8.768;2023-08-12T01:34:20;5.90;;;4.93;;
2386;SDS011;49473;50.772;8.768;2023-08-12T01:36:53;5.40;;;5.00;;
2386;SDS011;49473;50.772;8.768;2023-08-12T01:39:22;5.87;;;5.37;;
2386;SDS011;49473;50.772;8.768;2023-08-12T01:41:51;6.23;;;5.63;;
2386;SDS011;49473;50.772;8.768;2023-08-12T01:44:20;6.70;;;5.97;;
2386;SDS011;49473;50.772;8.768;2023-08-12T01:46:47;6.10;;;5.60;;
2386;SDS011;49473;50.772;8.768;2023-08-12T01:49:15;6.30;;;5.80;;
2386;SDS011;49473;50.772;8.768;2023-08-12T01:51:42;6.50;;;5.90;;
2386;SDS011;49473;50.772;8.768;2023-08-12T01:54:09;6.83;;;6.13;;
2386;SDS011;49473;50.772;8.768;2023-08-12T01:56:36;6.30;;;5.70;;
2386;SDS011;49473;50.772;8.768;2023-08-12T01:59:04;5.83;;;5.30;;
2386;SDS011;49473;50.772;8.768;2023-08-12T02:01:31;5.90;;;5.30;;
2386;SDS011;49473;50.772;8.768;2023-08-12T02:03:58;7.83;;;5.73;;
2386;SDS011;49473;50.772;8.768;2023-08-12T02:06:24;6.23;;;5.80;;
2386;SDS011;49473;50.772;8.768;2023-08-12T02:08:51;5.30;;;4.80;;
2386;SDS011;49473;50.772;8.768;2023-08-12T02:11:18;6.30;;;5.20;;
2386;SDS011;49473;50.772;8.768;2023-08-12T02:13:45;5.90;;;5.30;;
2386;SDS011;49473;50.772;8.768;2023-08-12T02:16:13;6.40;;;5.50;;
2386;SDS011;49473;50.772;8.768;2023-08-12T02:18:39;5.40;;;5.00;;
2386;SDS011;49473;50.772;8.768;2023-08-12T02:21:06;7.27;;;5.20;;
2386;SDS011;49473;50.772;8.768;2023-08-12T02:23:33;6.20;;;5.70;;
2386;SDS011;49473;50.772;8.768;2023-08-12T02:26:00;9.13;;;5.80;;
2386;SDS011;49473;50.772;8.768;2023-08-12T02:28:28;6.67;;;6.07;;
2386;SDS011;49473;50.772;8.768;2023-08-12T02:30:54;11.67;;;6.20;;
2386;SDS011;49473;50.772;8.768;2023-08-12T02:33:23;8.13;;;6.00;;
2386;SDS011;49473;50.772;8.768;2023-08-12T02:35:52;8.07;;;5.93;;
2386;SDS011;49473;50.772;8.768;2023-08-12T02:38:19;6.63;;;6.00;;
2386;SDS011;49473;50.772;8.768;2023-08-12T02:40:47;6.33;;;5.83;;
2386;SDS011;49473;50.772;8.768;2023-08-12T02:43:15;8.07;;;6.10;;
2386;SDS011;49473;50.772;8.768;2023-08-12T02:45:42;8.20;;;6.90;;
2386;SDS011;49473;50.772;8.768;2023-08-12T02:48:09;7.07;;;6.50;;
2386;SDS011;49473;50.772;8.768;2023-08-12T02:50:38;6.10;;;5.60;;
2386;SDS011;49473;50.772;8.768;2023-08-12T02:53:05;8.93;;;6.50;;
2386;SDS011;49473;50.772;8.768;2023-08-12T02:55:33;7.00;;;6.30;;
2386;SDS011;49473;50.772;8.768;2023-08-12T02:58:00;6.70;;;6.10;;
2386;SDS011;49473;50.772;8.768;2023-08-12T03:00:28;7.23;;;6.73;;
2386;SDS011;49473;50.772;8.768;2023-08-12T03:02:55;7.80;;;7.20;;
2386;SDS011;49473;50.772;8.768;2023-08-12T03:05:22;10.13;;;7.50;;
2386;SDS011;49473;50.772;8.768;2023-08-12T03:07:50;7.67;;;7.13;;
2386;SDS011;49473;50.772;8.768;2023-08-12T03:10:17;6.43;;;5.90;;
2386;SDS011;49473;50.772;8.768;2023-08-12T03:12:44;9.60;;;6.93;;
2386;SDS011;49473;50.772;8.768;2023-08-12T03:15:11;8.40;;;6.97;;
2386;SDS011;49473;50.772;8.768;2023-08-12T03:17:38;7.07;;;6.47;;
2386;SDS011;49473;50.772;8.768;2023-08-12T03:20:05;7.83;;;7.20;;
2386;SDS011;49473;50.772;8.768;2023-08-12T03:22:34;7.30;;;6.60;;
2386;SDS011;49473;50.772;8.768;2023-08-12T03:25:03;8.37;;;7.57;;
2386;SDS011;49473;50.772;8.768;2023-08-12T03:27:30;9.13;;;6.20;;
2386;SDS011;49473;50.772;8.768;2023-08-12T03:29:57;8.30;;;6.57;;
2386;SDS011;49473;50.772;8.768;2023-08-12T03:32:24;7.47;;;6.87;;
2386;SDS011;49473;50.772;8.768;2023-08-12T03:34:51;7.47;;;6.70;;
2386;SDS011;49473;50.772;8.768;2023-08-12T03:37:18;8.03;;;7.23;;
2386;SDS011;49473;50.772;8.768;2023-08-12T03:39:45;9.10;;;7.27;;
2386;SDS011;49473;50.772;8.768;2023-08-12T03:42:13;7.30;;;6.73;;
2386;SDS011;49473;50.772;8.768;2023-08-12T03:44:41;7.70;;;7.10;;
2386;SDS011;49473;50.772;8.768;2023-08-12T03:47:08;9.17;;;7.30;;
2386;SDS011;49473;50.772;8.768;2023-08-12T03:49:35;7.20;;;6.50;;
2386;SDS011;49473;50.772;8.768;2023-08-12T03:52:02;7.20;;;6.50;;
2386;SDS011;49473;50.772;8.768;2023-08-12T03:54:32;7.63;;;6.90;;
2386;SDS011;49473;50.772;8.768;2023-08-12T03:56:59;7.50;;;6.90;;
2386;SDS011;49473;50.772;8.768;2023-08-12T03:59:27;10.37;;;7.00;;
2386;SDS011;49473;50.772;8.768;2023-08-12T04:01:53;7.80;;;7.20;;
2386;SDS011;49473;50.772;8.768;2023-08-12T04:04:20;9.50;;;7.37;;
2386;SDS011;49473;50.772;8.768;2023-08-12T04:06:47;7.70;;;6.97;;
2386;SDS011;49473;50.772;8.768;2023-08-12T04:09:16;8.13;;;7.50;;
2386;SDS011;49473;50.772;8.768;2023-08-12T04:11:43;7.83;;;7.03;;
2386;SDS011;49473;50.772;8.768;2023-08-12T04:14:09;9.50;;;6.80;;
2386;SDS011;49473;50.772;8.768;2023-08-12T04:16:38;8.30;;;7.50;;
2386;SDS011;49473;50.772;8.768;2023-08-12T04:19:05;7.53;;;6.83;;
2386;SDS011;49473;50.772;8.768;2023-08-12T04:21:32;7.77;;;7.17;;
2386;SDS011;49473;50.772;8.768;2023-08-12T04:23:58;8.77;;;7.87;;
2386;SDS011;49473;50.772;8.768;2023-08-12T04:26:25;9.27;;;8.40;;
2386;SDS011;49473;50.772;8.768;2023-08-12T04:28:52;9.20;;;6.90;;
2386;SDS011;49473;50.772;8.768;2023-08-12T04:31:19;7.90;;;7.23;;
2386;SDS011;49473;50.772;8.768;2023-08-12T04:33:47;8.00;;;7.20;;
2386;SDS011;49473;50.772;8.768;2023-08-12T04:36:14;7.20;;;6.50;;
2386;SDS011;49473;50.772;8.768;2023-08-12T04:38:41;7.13;;;6.53;;
2386;SDS011;49473;50.772;8.768;2023-08-12T04:41:08;8.10;;;7.50;;
2386;SDS011;49473;50.772;8.768;2023-08-12T04:43:34;8.00;;;7.20;;
2386;SDS011;49473;50.772;8.768;2023-08-12T04:46:01;7.33;;;6.53;;
2386;SDS011;49473;50.772;8.768;2023-08-12T04:48:28;7.33;;;6.83;;
2386;SDS011;49473;50.772;8.768;2023-08-12T04:50:57;7.30;;;6.60;;
2386;SDS011;49473;50.772;8.768;2023-08-12T04:53:26;7.00;;;6.40;;
2386;SDS011;49473;50.772;8.768;2023-08-12T04:55:54;7.23;;;6.70;;
2386;SDS011;49473;50.772;8.768;2023-08-12T04:58:21;7.57;;;6.87;;
2386;SDS011;49473;50.772;8.768;2023-08-12T05:00:49;8.70;;;7.00;;
2386;SDS011;49473;50.772;8.768;2023-08-12T05:03:17;8.10;;;7.40;;
2386;SDS011;49473;50.772;8.768;2023-08-12T05:05:43;8.87;;;7.73;;
2386;SDS011;49473;50.772;8.768;2023-08-12T05:08:15;7.30;;;6.80;;
2386;SDS011;49473;50.772;8.768;2023-08-12T05:10:42;8.30;;;7.17;;
2386;SDS011;49473;50.772;8.768;2023-08-12T05:13:09;9.57;;;8.67;;
2386;SDS011;49473;50.772;8.768;2023-08-12T05:15:35;10.47;;;8.50;;
2386;SDS011;49473;50.772;8.768;2023-08-12T05:18:02;8.03;;;7.50;;
2386;SDS011;49473;50.772;8.768;2023-08-12T05:20:30;7.93;;;7.30;;
2386;SDS011;49473;50.772;8.768;2023-08-12T05:22:56;9.00;;;8.10;;
2386;SDS011;49473;50.772;8.768;2023-08-12T05:25:24;8.47;;;7.90;;
2386;SDS011;49473;50.772;8.768;2023-08-12T05:27:51;9.17;;;8.10;;
2386;SDS011;49473;50.772;8.768;2023-08-12T05:30:18;9.70;;;8.80;;
2386;SDS011;49473;50.772;8.768;2023-08-12T05:32:45;10.33;;;8.30;;
2386;SDS011;49473;50.772;8.768;2023-08-12T05:35:11;8.70;;;8.00;;
2386;SDS011;49473;50.772;8.768;2023-08-12T05:37:38;8.77;;;7.97;;
2386;SDS011;49473;50.772;8.768;2023-08-12T05:40:06;8.70;;;7.90;;
2386;SDS011;49473;50.772;8.768;2023-08-12T05:42:35;8.90;;;7.93;;
2386;SDS011;49473;50.772;8.768;2023-08-12T05:45:03;7.30;;;6.70;;
2386;SDS011;49473;50.772;8.768;2023-08-12T05:47:30;8.23;;;7.53;;
2386;SDS011;49473;50.772;8.768;2023-08-12T05:49:57;8.00;;;7.40;;
2386;SDS011;49473;50.772;8.768;2023-08-12T05:52:24;8.23;;;7.63;;
2386;SDS011;49473;50.772;8.768;2023-08-12T05:54:50;7.90;;;7.30;;
2386;SDS011;49473;50.772;8.768;2023-08-12T05:57:17;8.30;;;7.70;;
2386;SDS011;49473;50.772;8.768;2023-08-12T05:59:45;9.10;;;8.50;;
2386;SDS011;49473;50.772;8.768;2023-08-12T06:02:12;8.20;;;7.53;;
2386;SDS011;49473;50.772;8.768;2023-08-12T06:04:39;7.70;;;7.10;;
2386;SDS011;49473;50.772;8.768;2023-08-12T06:07:06;8.23;;;7.63;;
2386;SDS011;49473;50.772;8.768;2023-08-12T06:09:33;9.13;;;8.43;;
2386;SDS011;49473;50.772;8.768;2023-08-12T06:11:59;8.37;;;7.77;;
2386;SDS011;49473;50.772;8.768;2023-08-12T06:14:26;8.00;;;7.43;;
2386;SDS011;49473;50.772;8.768;2023-08-12T06:16:55;8.87;;;8.17;;
2386;SDS011;49473;50.772;8.768;2023-08-12T06:19:22;8.07;;;7.47;;
2386;SDS011;49473;50.772;8.768;2023-08-12T06:21:48;8.23;;;7.53;;
2386;SDS011;49473;50.772;8.768;2023-08-12T06:24:15;7.90;;;7.40;;
2386;SDS011;49473;50.772;8.768;2023-08-12T06:26:42;8.27;;;7.67;;
2386;SDS011;49473;50.772;8.768;2023-08-12T06:29:08;8.33;;;7.67;;
2386;SDS011;49473;50.772;8.768;2023-08-12T06:31:35;7.07;;;6.57;;
2386;SDS011;49473;50.772;8.768;2023-08-12T06:34:04;8.40;;;7.87;;
2386;SDS011;49473;50.772;8.768;2023-08-12T06:36:30;8.83;;;8.03;;
2386;SDS011;49473;50.772;8.768;2023-08-12T06:38:57;8.10;;;7.50;;
2386;SDS011;49473;50.772;8.768;2023-08-12T06:41:24;8.80;;;8.00;;
2386;SDS011;49473;50.772;8.768;2023-08-12T06:43:50;8.30;;;7.70;;
2386;SDS011;49473;50.772;8.768;2023-08-12T06:46:17;9.17;;;8.47;;
2386;SDS011;49473;50.772;8.768;2023-08-12T06:48:44;8.90;;;8.20;;
2386;SDS011;49473;50.772;8.768;2023-08-12T06:51:12;8.87;;;8.27;;
2386;SDS011;49473;50.772;8.768;2023-08-12T06:53:38;8.47;;;7.87;;
2386;SDS011;49473;50.772;8.768;2023-08-12T06:56:05;9.13;;;8.37;;
2386;SDS011;49473;50.772;8.768;2023-08-12T06:58:32;8.50;;;7.90;;
2386;SDS011;49473;50.772;8.768;2023-08-12T07:00:59;8.50;;;7.90;;
2386;SDS011;49473;50.772;8.768;2023-08-12T07:03:25;8.50;;;7.80;;
2386;SDS011;49473;50.772;8.768;2023-08-12T07:05:52;8.53;;;7.77;;
2386;SDS011;49473;50.772;8.768;2023-08-12T07:08:20;8.73;;;8.03;;
2386;SDS011;49473;50.772;8.768;2023-08-12T07:10:47;7.57;;;7.07;;
2386;SDS011;49473;50.772;8.768;2023-08-12T07:13:14;9.20;;;8.60;;
2386;SDS011;49473;50.772;8.768;2023-08-12T07:15:41;9.13;;;8.23;;
2386;SDS011;49473;50.772;8.768;2023-08-12T07:18:07;8.47;;;7.87;;
2386;SDS011;49473;50.772;8.768;2023-08-12T07:20:34;9.60;;;8.80;;
2386;SDS011;49473;50.772;8.768;2023-08-12T07:23:01;9.50;;;8.80;;
2386;SDS011;49473;50.772;8.768;2023-08-12T07:25:29;7.83;;;7.17;;
2386;SDS011;49473;50.772;8.768;2023-08-12T07:27:56;7.60;;;7.10;;
2386;SDS011;49473;50.772;8.768;2023-08-12T07:30:23;7.80;;;7.20;;
2386;SDS011;49473;50.772;8.768;2023-08-12T07:32:50;9.33;;;8.63;;
2386;SDS011;49473;50.772;8.768;2023-08-12T07:35:17;7.90;;;7.20;;
2386;SDS011;49473;50.772;8.768;2023-08-12T07:37:43;8.97;;;8.37;;
2386;SDS011;49473;50.772;8.768;2023-08-12T07:40:10;8.80;;;8.10;;
2386;SDS011;49473;50.772;8.768;2023-08-12T07:42:38;9.00;;;8.40;;
2386;SDS011;49473;50.772;8.768;2023-08-12T07:45:06;8.40;;;7.90;;
2386;SDS011;49473;50.772;8.768;2023-08-12T07:47:34;8.43;;;7.70;;
2386;SDS011;49473;50.772;8.768;2023-08-12T07:50:00;9.70;;;8.87;;
2386;SDS011;49473;50.772;8.768;2023-08-12T07:52:28;10.33;;;9.33;;
2386;SDS011;49473;50.772;8.768;2023-08-12T07:54:55;10.03;;;9.20;;
2386;SDS011;49473;50.772;8.768;2023-08-12T07:57:21;10.40;;;9.70;;
2386;SDS011;49473;50.772;8.768;2023-08-12T07:59:50;10.20;;;9.50;;
2386;SDS011;49473;50.772;8.768;2023-08-12T08:02:17;10.37;;;9.70;;
2386;SDS011;49473;50.772;8.768;2023-08-12T08:04:44;10.97;;;10.07;;
2386;SDS011;49473;50.772;8.768;2023-08-12T08:07:14;9.03;;;8.33;;
2386;SDS011;49473;50.772;8.768;2023-08-12T08:09:41;8.10;;;7.53;;
2386;SDS011;49473;50.772;8.768;2023-08-12T08:12:08;7.90;;;7.40;;
2386;SDS011;49473;50.772;8.768;2023-08-12T08:14:35;7.27;;;6.77;;
2386;SDS011;49473;50.772;8.768;2023-08-12T08:17:03;7.97;;;7.33;;
2386;SDS011;49473;50.772;8.768;2023-08-12T08:19:30;7.13;;;6.73;;
2386;SDS011;49473;50.772;8.768;2023-08-12T08:21:57;7.73;;;7.23;;
2386;SDS011;49473;50.772;8.768;2023-08-12T08:24:24;6.57;;;6.07;;
2386;SDS011;49473;50.772;8.768;2023-08-12T08:26:51;7.80;;;7.17;;
2386;SDS011;49473;50.772;8.768;2023-08-12T08:29:18;7.00;;;6.53;;
2386;SDS011;49473;50.772;8.768;2023-08-12T08:31:44;7.27;;;6.67;;
2386;SDS011;49473;50.772;8.768;2023-08-12T08:34:12;7.83;;;7.23;;
2386;SDS011;49473;50.772;8.768;2023-08-12T08:36:39;7.27;;;6.67;;
2386;SDS011;49473;50.772;8.768;2023-08-12T08:39:06;7.60;;;7.10;;
2386;SDS011;49473;50.772;8.768;2023-08-12T08:41:33;6.87;;;6.37;;
2386;SDS011;49473;50.772;8.768;2023-08-12T08:44:05;7.47;;;6.97;;
2386;SDS011;49473;50.772;8.768;2023-08-12T08:46:33;8.17;;;7.57;;
2386;SDS011;49473;50.772;8.768;2023-08-12T08:49:01;7.50;;;7.00;;
2386;SDS011;49473;50.772;8.768;2023-08-12T08:51:30;9.07;;;7.23;;
2386;SDS011;49473;50.772;8.768;2023-08-12T08:53:57;8.10;;;7.50;;
2386;SDS011;49473;50.772;8.768;2023-08-12T08:56:25;8.10;;;7.60;;
2386;SDS011;49473;50.772;8.768;2023-08-12T08:58:52;7.33;;;6.80;;
2386;SDS011;49473;50.772;8.768;2023-08-12T09:01:19;8.50;;;7.80;;
2386;SDS011;49473;50.772;8.768;2023-08-12T09:03:48;9.70;;;7.97;;
2386;SDS011;49473;50.772;8.768;2023-08-12T09:06:19;8.60;;;8.00;;
2386;SDS011;49473;50.772;8.768;2023-08-12T09:08:50;9.20;;;8.60;;
2386;SDS011;49473;50.772;8.768;2023-08-12T09:11:17;7.97;;;7.37;;
2386;SDS011;49473;50.772;8.768;2023-08-12T09:13:45;7.83;;;7.27;;
2386;SDS011;49473;50.772;8.768;2023-08-12T09:16:12;7.90;;;7.40;;
2386;SDS011;49473;50.772;8.768;2023-08-12T09:18:39;6.93;;;6.53;;
2386;SDS011;49473;50.772;8.768;2023-08-12T09:21:08;7.57;;;7.07;;
2386;SDS011;49473;50.772;8.768;2023-08-12T09:23:35;7.97;;;7.37;;
2386;SDS011;49473;50.772;8.768;2023-08-12T09:26:12;7.73;;;7.10;;
2386;SDS011;49473;50.772;8.768;2023-08-12T09:28:40;6.77;;;6.37;;
2386;SDS011;49473;50.772;8.768;2023-08-12T09:31:07;7.73;;;7.03;;
2386;SDS011;49473;50.772;8.768;2023-08-12T09:33:38;7.40;;;6.80;;
2386;SDS011;49473;50.772;8.768;2023-08-12T09:36:05;6.77;;;6.30;;
2386;SDS011;49473;50.772;8.768;2023-08-12T09:38:40;7.77;;;7.20;;
2386;SDS011;49473;50.772;8.768;2023-08-12T09:41:06;7.87;;;6.93;;
2386;SDS011;49473;50.772;8.768;2023-08-12T09:43:33;7.67;;;7.17;;
2386;SDS011;49473;50.772;8.768;2023-08-12T09:46:00;7.83;;;7.33;;
2386;SDS011;49473;50.772;8.768;2023-08-12T09:48:28;8.33;;;7.73;;
2386;SDS011;49473;50.772;8.768;2023-08-12T09:50:55;8.50;;;7.80;;
2386;SDS011;49473;50.772;8.768;2023-08-12T09:53:22;8.90;;;8.10;;
2386;SDS011;49473;50.772;8.768;2023-08-12T09:55:51;8.10;;;7.60;;
2386;SDS011;49473;50.772;8.768;2023-08-12T09:58:18;8.53;;;7.80;;
2386;SDS011;49473;50.772;8.768;2023-08-12T10:00:49;8.60;;;7.90;;
2386;SDS011;49473;50.772;8.768;2023-08-12T10:03:16;8.87;;;8.17;;
2386;SDS011;49473;50.772;8.768;2023-08-12T10:05:46;8.37;;;7.87;;
2386;SDS011;49473;50.772;8.768;2023-08-12T10:08:13;8.10;;;7.30;;
2386;SDS011;49473;50.772;8.768;2023-08-12T10:10:41;7.07;;;6.60;;
2386;SDS011;49473;50.772;8.768;2023-08-12T10:13:09;7.20;;;6.50;;
2386;SDS011;49473;50.772;8.768;2023-08-12T10:15:37;6.97;;;6.47;;
2386;SDS011;49473;50.772;8.768;2023-08-12T10:18:04;6.77;;;6.30;;
2386;SDS011;49473;50.772;8.768;2023-08-12T10:20:32;7.97;;;7.37;;
2386;SDS011;49473;50.772;8.768;2023-08-12T10:23:00;7.87;;;7.13;;
2386;SDS011;49473;50.772;8.768;2023-08-12T10:25:30;6.70;;;6.10;;
2386;SDS011;49473;50.772;8.768;2023-08-12T10:27:59;7.07;;;6.57;;
2386;SDS011;49473;50.772;8.768;2023-08-12T10:30:29;6.10;;;5.60;;
2386;SDS011;49473;50.772;8.768;2023-08-12T10:32:56;7.00;;;6.60;;
2386;SDS011;49473;50.772;8.768;2023-08-12T10:35:39;5.93;;;5.43;;
2386;SDS011;49473;50.772;8.768;2023-08-12T10:38:11;5.90;;;5.57;;
2386;SDS011;49473;50.772;8.768;2023-08-12T10:40:40;7.20;;;6.17;;
2386;SDS011;49473;50.772;8.768;2023-08-12T10:43:07;6.57;;;6.07;;
2386;SDS011;49473;50.772;8.768;2023-08-12T10:45:43;6.67;;;6.20;;
2386;SDS011;49473;50.772;8.768;2023-08-12T10:48:16;5.93;;;5.30;;
2386;SDS011;49473;50.772;8.768;2023-08-12T10:50:44;6.13;;;5.70;;
2386;SDS011;49473;50.772;8.768;2023-08-12T10:53:22;7.00;;;5.30;;
2386;SDS011;49473;50.772;8.768;2023-08-12T10:55:54;5.10;;;4.70;;
2386;SDS011;49473;50.772;8.768;2023-08-12T10:58:28;5.60;;;5.13;;
2386;SDS011;49473;50.772;8.768;2023-08-12T11:00:57;5.63;;;5.23;;
2386;SDS011;49473;50.772;8.768;2023-08-12T11:03:24;6.40;;;5.90;;
2386;SDS011;49473;50.772;8.768;2023-08-12T11:05:51;6.63;;;6.23;;
2386;SDS011;49473;50.772;8.768;2023-08-12T11:08:23;6.20;;;5.80;;
2386;SDS011;49473;50.772;8.768;2023-08-12T11:10:53;6.90;;;6.40;;
2386;SDS011;49473;50.772;8.768;2023-08-12T11:13:21;7.07;;;6.47;;
2386;SDS011;49473;50.772;8.768;2023-08-12T11:15:47;7.03;;;6.43;;
2386;SDS011;49473;50.772;8.768;2023-08-12T11:18:17;7.97;;;7.37;;
2386;SDS011;49473;50.772;8.768;2023-08-12T11:20:45;7.03;;;6.53;;
2386;SDS011;49473;50.772;8.768;2023-08-12T11:23:14;7.43;;;6.80;;
2386;SDS011;49473;50.772;8.768;2023-08-12T11:25:43;8.13;;;7.33;;
2386;SDS011;49473;50.772;8.768;2023-08-12T11:28:10;7.73;;;7.17;;
2386;SDS011;49473;50.772;8.768;2023-08-12T11:30:39;7.30;;;6.70;;
2386;SDS011;49473;50.772;8.768;2023-08-12T11:33:08;9.00;;;8.30;;
2386;SDS011;49473;50.772;8.768;2023-08-12T11:35:36;7.17;;;6.67;;
2386;SDS011;49473;50.772;8.768;2023-08-12T11:38:04;7.87;;;7.27;;
2386;SDS011;49473;50.772;8.768;2023-08-12T11:40:31;8.23;;;7.53;;
2386;SDS011;49473;50.772;8.768;2023-08-12T11:42:58;8.70;;;8.00;;
2386;SDS011;49473;50.772;8.768;2023-08-12T11:45:26;8.50;;;7.70;;
2386;SDS011;49473;50.772;8.768;2023-08-12T11:47:53;7.77;;;7.17;;
2386;SDS011;49473;50.772;8.768;2023-08-12T11:50:20;7.97;;;7.33;;
2386;SDS011;49473;50.772;8.768;2023-08-12T11:52:50;7.30;;;6.80;;
2386;SDS011;49473;50.772;8.768;2023-08-12T11:55:18;7.17;;;6.67;;
2386;SDS011;49473;50.772;8.768;2023-08-12T11:57:45;8.13;;;7.07;;
2386;SDS011;49473;50.772;8.768;2023-08-12T12:00:12;7.17;;;6.67;;
2386;SDS011;49473;50.772;8.768;2023-08-12T12:02:40;6.00;;;5.60;;
2386;SDS011;49473;50.772;8.768;2023-08-12T12:05:11;6.30;;;5.43;;
2386;SDS011;49473;50.772;8.768;2023-08-12T12:07:38;7.70;;;7.03;;
2386;SDS011;49473;50.772;8.768;2023-08-12T12:10:06;5.60;;;5.20;;
2386;SDS011;49473;50.772;8.768;2023-08-12T12:12:34;4.30;;;4.10;;
2386;SDS011;49473;50.772;8.768;2023-08-12T12:15:01;7.27;;;4.43;;
2386;SDS011;49473;50.772;8.768;2023-08-12T12:17:29;4.63;;;4.33;;
2386;SDS011;49473;50.772;8.768;2023-08-12T12:19:56;4.70;;;4.40;;
2386;SDS011;49473;50.772;8.768;2023-08-12T12:22:26;4.13;;;3.90;;
2386;SDS011;49473;50.772;8.768;2023-08-12T12:24:57;3.50;;;3.20;;
2386;SDS011;49473;50.772;8.768;2023-08-12T12:27:25;3.73;;;3.40;;
2386;SDS011;49473;50.772;8.768;2023-08-12T12:29:52;3.17;;;2.97;;
2386;SDS011;49473;50.772;8.768;2023-08-12T12:32:19;3.20;;;3.07;;
2386;SDS011;49473;50.772;8.768;2023-08-12T12:34:46;3.23;;;3.03;;
2386;SDS011;49473;50.772;8.768;2023-08-12T12:37:13;3.40;;;3.10;;
2386;SDS011;49473;50.772;8.768;2023-08-12T12:39:40;3.27;;;3.07;;
2386;SDS011;49473;50.772;8.768;2023-08-12T12:42:07;3.40;;;2.90;;
2386;SDS011;49473;50.772;8.768;2023-08-12T12:44:36;3.30;;;3.10;;
2386;SDS011;49473;50.772;8.768;2023-08-12T12:47:02;3.00;;;2.80;;
2386;SDS011;49473;50.772;8.768;2023-08-12T12:49:29;2.90;;;2.70;;
2386;SDS011;49473;50.772;8.768;2023-08-12T12:51:56;2.70;;;2.50;;
2386;SDS011;49473;50.772;8.768;2023-08-12T12:54:23;2.37;;;2.20;;
2386;SDS011;49473;50.772;8.768;2023-08-12T12:56:50;2.90;;;2.50;;
2386;SDS011;49473;50.772;8.768;2023-08-12T12:59:16;3.50;;;2.40;;
2386;SDS011;49473;50.772;8.768;2023-08-12T13:01:44;2.80;;;2.60;;
2386;SDS011;49473;50.772;8.768;2023-08-12T13:04:11;2.00;;;1.90;;
2386;SDS011;49473;50.772;8.768;2023-08-12T13:06:38;1.93;;;1.80;;
2386;SDS011;49473;50.772;8.768;2023-08-12T13:09:05;2.73;;;1.60;;
2386;SDS011;49473;50.772;8.768;2023-08-12T13:11:32;1.40;;;1.30;;
2386;SDS011;49473;50.772;8.768;2023-08-12T13:14:00;1.47;;;1.37;;
2386;SDS011;49473;50.772;8.768;2023-08-12T13:16:26;5.17;;;1.57;;
2386;SDS011;49473;50.772;8.768;2023-08-12T13:18:55;1.63;;;1.20;;
2386;SDS011;49473;50.772;8.768;2023-08-12T13:21:23;2.90;;;1.30;;
2386;SDS011;49473;50.772;8.768;2023-08-12T13:23:50;1.40;;;1.30;;
2386;SDS011;49473;50.772;8.768;2023-08-12T13:26:16;1.40;;;1.30;;
2386;SDS011;49473;50.772;8.768;2023-08-12T13:28:44;1.60;;;1.50;;
2386;SDS011;49473;50.772;8.768;2023-08-12T13:31:10;2.50;;;1.57;;
2386;SDS011;49473;50.772;8.768;2023-08-12T13:33:37;2.10;;;1.53;;
2386;SDS011;49473;50.772;8.768;2023-08-12T13:36:05;1.60;;;1.50;;
2386;SDS011;49473;50.772;8.768;2023-08-12T13:38:32;3.10;;;1.50;;
2386;SDS011;49473;50.772;8.768;2023-08-12T13:40:58;1.83;;;1.73;;
2386;SDS011;49473;50.772;8.768;2023-08-12T13:43:25;1.40;;;1.40;;
2386;SDS011;49473;50.772;8.768;2023-08-12T13:45:52;1.93;;;1.53;;
2386;SDS011;49473;50.772;8.768;2023-08-12T13:48:19;1.83;;;1.40;;
2386;SDS011;49473;50.772;8.768;2023-08-12T13:50:46;1.83;;;1.73;;
2386;SDS011;49473;50.772;8.768;2023-08-12T13:53:15;1.60;;;1.50;;
2386;SDS011;49473;50.772;8.768;2023-08-12T13:55:42;1.47;;;1.40;;
2386;SDS011;49473;50.772;8.768;2023-08-12T13:58:09;1.60;;;1.50;;
2386;SDS011;49473;50.772;8.768;2023-08-12T14:00:36;1.70;;;1.60;;
2386;SDS011;49473;50.772;8.768;2023-08-12T14:03:04;4.50;;;1.47;;
2386;SDS011;49473;50.772;8.768;2023-08-12T14:05:31;2.00;;;1.60;;
2386;SDS011;49473;50.772;8.768;2023-08-12T14:07:57;1.53;;;1.40;;
2386;SDS011;49473;50.772;8.768;2023-08-12T14:10:26;1.43;;;1.33;;
2386;SDS011;49473;50.772;8.768;2023-08-12T14:12:53;3.27;;;1.90;;
2386;SDS011;49473;50.772;8.768;2023-08-12T14:15:19;1.70;;;1.60;;
2386;SDS011;49473;50.772;8.768;2023-08-12T14:17:46;1.40;;;1.40;;
2386;SDS011;49473;50.772;8.768;2023-08-12T14:20:13;1.80;;;1.60;;
2386;SDS011;49473;50.772;8.768;2023-08-12T14:22:40;1.70;;;1.60;;
2386;SDS011;49473;50.772;8.768;2023-08-12T14:25:08;1.50;;;1.40;;
2386;SDS011;49473;50.772;8.768;2023-08-12T14:27:37;1.63;;;1.53;;
2386;SDS011;49473;50.772;8.768;2023-08-12T14:30:04;2.07;;;1.87;;
2386;SDS011;49473;50.772;8.768;2023-08-12T14:32:32;2.00;;;1.70;;
2386;SDS011;49473;50.772;8.768;2023-08-12T14:34:58;1.80;;;1.70;;
2386;SDS011;49473;50.772;8.768;2023-08-12T14:37:25;1.70;;;1.60;;
2386;SDS011;49473;50.772;8.768;2023-08-12T14:39:52;5.00;;;2.00;;
2386;SDS011;49473;50.772;8.768;2023-08-12T14:42:19;2.40;;;2.20;;
2386;SDS011;49473;50.772;8.768;2023-08-12T14:44:47;1.60;;;1.50;;
2386;SDS011;49473;50.772;8.768;2023-08-12T14:47:14;4.87;;;2.37;;
2386;SDS011;49473;50.772;8.768;2023-08-12T14:49:41;1.90;;;1.80;;
2386;SDS011;49473;50.772;8.768;2023-08-12T14:52:14;1.93;;;1.83;;
2386;SDS011;49473;50.772;8.768;2023-08-12T14:54:42;3.40;;;1.80;;
2386;SDS011;49473;50.772;8.768;2023-08-12T14:57:08;1.90;;;1.80;;
2386;SDS011;49473;50.772;8.768;2023-08-12T14:59:35;2.17;;;1.90;;
2386;SDS011;49473;50.772;8.768;2023-08-12T15:02:03;1.80;;;1.70;;